createdAt,value
2019-02-27T09:10:18.676Z,28.98
2019-02-27T09:11:18.915Z,30.08
2019-02-27T09:12:18.947Z,29.27
2019-02-27T09:13:04.882Z,29.06
2019-02-27T09:13:58.386Z,28.97
2019-02-27T09:14:57.545Z,24.51
2019-02-27T09:15:57.401Z,29.61
2019-02-27T09:16:57.403Z,38.75
2019-02-27T09:17:59.251Z,47.38
2019-02-27T09:18:57.536Z,57.01
2019-02-27T09:19:57.334Z,41.38
2019-02-27T09:20:57.492Z,34.57
2019-02-27T09:21:57.337Z,33.17
2019-02-27T09:22:57.295Z,33.29
2019-02-27T09:23:57.467Z,30.45
2019-02-27T09:24:57.482Z,30.64
2019-02-27T09:25:57.638Z,29.72
2019-02-27T09:26:57.243Z,32.91
2019-02-27T09:27:57.473Z,32.20
2019-02-27T09:28:57.408Z,29.19
2019-02-27T09:29:57.420Z,29.69
2019-02-27T09:30:57.441Z,28.39
2019-02-27T09:31:57.438Z,30.10
2019-02-27T09:32:57.563Z,42.55
2019-02-27T09:33:57.172Z,26.89
2019-02-27T09:34:59.617Z,28.22
2019-02-27T09:35:58.248Z,29.13
2019-02-27T09:36:57.600Z,29.14
2019-02-27T09:37:57.831Z,29.06
2019-02-27T09:38:57.857Z,31.07
2019-02-27T09:39:57.780Z,28.47
2019-02-27T09:40:57.667Z,29.47
2019-02-27T09:41:57.631Z,29.17
2019-02-27T09:42:57.427Z,31.57
2019-02-27T09:43:58.557Z,29.57
2019-02-27T09:44:57.633Z,30.36
2019-02-27T09:45:57.584Z,29.18
2019-02-27T09:46:57.574Z,29.86
2019-02-27T09:47:59.979Z,29.25
2019-02-27T09:48:57.557Z,28.57
2019-02-27T09:49:57.550Z,29.14
2019-02-27T09:50:57.525Z,28.66
